createdAt,value
2018-09-16T00:00:19.920Z,14.47
2018-09-16T00:00:55.145Z,14.47
2018-09-16T00:01:30.254Z,14.49
2018-09-16T00:02:05.464Z,14.37
2018-09-16T00:02:40.767Z,14.43
2018-09-16T00:03:16.114Z,14.42
2018-09-16T00:03:51.347Z,14.32
2018-09-16T00:04:26.957Z,14.28
2018-09-16T00:05:02.367Z,14.27
2018-09-16T00:05:37.938Z,14.31
2018-09-16T00:06:13.352Z,14.29
2018-09-16T00:06:49.052Z,14.31
2018-09-16T00:07:24.569Z,14.29
2018-09-16T00:08:00.099Z,14.25
2018-09-16T00:08:35.506Z,14.19
2018-09-16T00:09:10.634Z,14.21
2018-09-16T00:09:46.311Z,14.14
2018-09-16T00:10:21.519Z,14.21
2018-09-16T00:10:58.935Z,14.20
2018-09-16T00:11:34.323Z,14.28
2018-09-16T00:12:09.644Z,14.27
2018-09-16T00:12:44.860Z,14.21
2018-09-16T00:13:19.965Z,14.19
2018-09-16T00:13:55.193Z,14.17
2018-09-16T00:14:30.584Z,14.14
2018-09-16T00:15:05.890Z,14.25
2018-09-16T00:15:41.143Z,14.14
2018-09-16T00:16:16.675Z,14.20
2018-09-16T00:16:52.330Z,14.20
2018-09-16T00:17:27.664Z,14.14
2018-09-16T00:18:03.020Z,14.13
2018-09-16T00:18:38.583Z,14.20
2018-09-16T00:19:14.177Z,14.16
2018-09-16T00:19:49.715Z,14.17
2018-09-16T00:20:25.353Z,14.07
2018-09-16T00:21:00.685Z,14.07
2018-09-16T00:21:36.113Z,14.07
2018-09-16T00:22:11.695Z,14.12
2018-09-16T00:22:47.096Z,14.01
2018-09-16T00:23:22.519Z,14.07
2018-09-16T00:23:57.979Z,14.10
2018-09-16T00:24:33.304Z,14.07
2018-09-16T00:25:08.955Z,14.04
2018-09-16T00:25:44.289Z,14.09
2018-09-16T00:26:19.682Z,14.07
2018-09-16T00:26:55.403Z,13.99
2018-09-16T00:27:30.997Z,13.98
2018-09-16T00:28:06.410Z,14.04
2018-09-16T00:28:41.975Z,14.06
2018-09-16T00:29:17.332Z,13.99
2018-09-16T00:29:52.689Z,13.99
2018-09-16T00:30:27.956Z,13.98
2018-09-16T00:31:03.370Z,13.96
2018-09-16T00:31:38.476Z,13.91
2018-09-16T00:32:13.687Z,13.92
2018-09-16T00:32:48.799Z,13.99
2018-09-16T00:33:24.005Z,13.94
2018-09-16T00:33:59.421Z,13.91
2018-09-16T00:34:34.670Z,13.89
2018-09-16T00:35:10.016Z,13.89
2018-09-16T00:35:45.257Z,13.94
2018-09-16T00:36:20.590Z,13.92
2018-09-16T00:36:55.725Z,13.91
2018-09-16T00:37:31.092Z,13.89
2018-09-16T00:38:06.430Z,13.94
2018-09-16T00:38:41.659Z,13.94
2018-09-16T00:39:16.997Z,13.84
2018-09-16T00:39:52.253Z,13.88
2018-09-16T00:40:27.737Z,13.87
2018-09-16T00:41:03.107Z,13.81
2018-09-16T00:41:38.542Z,13.88
2018-09-16T00:42:13.997Z,13.88
2018-09-16T00:42:49.537Z,13.84
2018-09-16T00:43:24.861Z,13.81
2018-09-16T00:44:00.176Z,13.84
2018-09-16T00:44:35.593Z,13.79
2018-09-16T00:45:11.066Z,13.84
2018-09-16T00:45:46.190Z,13.79
2018-09-16T00:46:21.504Z,13.80
2018-09-16T00:46:56.757Z,13.76
2018-09-16T00:47:32.100Z,13.80
2018-09-16T00:48:07.222Z,13.79
2018-09-16T00:48:42.882Z,13.79
2018-09-16T00:49:18.421Z,13.71
2018-09-16T00:49:53.908Z,13.70
2018-09-16T00:50:29.056Z,13.74
2018-09-16T00:51:04.313Z,13.71
2018-09-16T00:51:39.688Z,13.73
2018-09-16T00:52:15.117Z,13.74
2018-09-16T00:52:50.294Z,13.70
2018-09-16T00:53:25.725Z,13.76
2018-09-16T00:54:01.065Z,13.71
2018-09-16T00:54:36.836Z,13.71
2018-09-16T00:55:12.103Z,13.73
2018-09-16T00:55:47.433Z,13.71
2018-09-16T00:56:22.955Z,13.79
2018-09-16T00:56:58.147Z,13.63
2018-09-16T00:57:33.583Z,13.67
2018-09-16T00:58:08.888Z,13.65
2018-09-16T00:58:44.250Z,13.63
2018-09-16T00:59:19.496Z,13.62
2018-09-16T00:59:56.413Z,13.63
2018-09-16T01:00:31.719Z,13.63
2018-09-16T01:01:06.945Z,13.67
2018-09-16T01:01:42.467Z,13.74
2018-09-16T01:02:17.500Z,13.63
2018-09-16T01:02:52.786Z,13.62
2018-09-16T01:03:28.417Z,13.61
2018-09-16T01:04:03.812Z,13.62
2018-09-16T01:04:39.092Z,13.58
2018-09-16T01:05:14.403Z,13.56
2018-09-16T01:05:49.589Z,13.61
2018-09-16T01:06:25.024Z,13.59
2018-09-16T01:07:00.243Z,13.61
2018-09-16T01:07:35.671Z,13.61
2018-09-16T01:08:10.850Z,13.63
2018-09-16T01:08:46.265Z,13.58
2018-09-16T01:09:21.560Z,13.55
2018-09-16T01:09:56.866Z,13.52
2018-09-16T01:10:32.341Z,13.55
2018-09-16T01:11:07.451Z,13.59
2018-09-16T01:11:43.022Z,13.55
2018-09-16T01:12:18.329Z,13.52
2018-09-16T01:12:53.962Z,13.52
2018-09-16T01:13:29.238Z,13.51
2018-09-16T01:14:04.769Z,13.44
2018-09-16T01:14:40.207Z,13.49
2018-09-16T01:15:15.537Z,13.54
2018-09-16T01:15:50.623Z,13.47
2018-09-16T01:16:26.268Z,13.63
2018-09-16T01:17:01.890Z,13.52
2018-09-16T01:17:37.344Z,13.58
2018-09-16T01:18:12.681Z,13.47
2018-09-16T01:18:48.333Z,13.52
2018-09-16T01:19:23.750Z,13.49
2018-09-16T01:19:59.192Z,13.59
2018-09-16T01:20:34.485Z,13.51
2018-09-16T01:21:09.873Z,13.54
2018-09-16T01:21:45.339Z,13.47
2018-09-16T01:22:20.665Z,13.56
2018-09-16T01:22:56.008Z,13.46
2018-09-16T01:23:31.596Z,13.43
2018-09-16T01:24:06.983Z,13.49
2018-09-16T01:24:42.249Z,13.51
2018-09-16T01:25:17.690Z,13.49
2018-09-16T01:25:53.228Z,13.49
2018-09-16T01:26:28.633Z,13.44
2018-09-16T01:27:04.169Z,13.43
2018-09-16T01:27:39.723Z,13.49
2018-09-16T01:28:15.106Z,13.51
2018-09-16T01:28:50.445Z,13.49
2018-09-16T01:29:25.938Z,13.43
2018-09-16T01:30:01.526Z,13.38
2018-09-16T01:30:37.046Z,13.36
2018-09-16T01:31:12.805Z,13.40
2018-09-16T01:31:48.826Z,13.46
2018-09-16T01:32:24.171Z,13.46
2018-09-16T01:32:59.581Z,13.36
2018-09-16T01:33:34.929Z,13.40
2018-09-16T01:34:10.345Z,13.36
2018-09-16T01:34:45.736Z,13.33
2018-09-16T01:35:21.311Z,13.30
2018-09-16T01:35:56.644Z,13.32
2018-09-16T01:36:31.979Z,13.21
2018-09-16T01:37:07.249Z,13.30
2018-09-16T01:37:42.894Z,13.37
2018-09-16T01:38:18.427Z,13.25
2018-09-16T01:38:53.644Z,13.25
2018-09-16T01:39:28.848Z,13.30
2018-09-16T01:40:04.077Z,13.22
2018-09-16T01:40:39.614Z,13.30
2018-09-16T01:41:15.283Z,13.25
2018-09-16T01:41:50.779Z,13.27
2018-09-16T01:42:26.092Z,13.25
2018-09-16T01:43:01.526Z,13.20
2018-09-16T01:43:36.755Z,13.25
2018-09-16T01:44:12.194Z,13.27
2018-09-16T01:44:47.664Z,13.20
2018-09-16T01:45:22.789Z,13.20
2018-09-16T01:45:58.191Z,13.20
2018-09-16T01:46:33.596Z,13.15
2018-09-16T01:47:09.119Z,13.07
2018-09-16T01:47:44.226Z,13.04
2018-09-16T01:48:19.782Z,13.07
2018-09-16T01:48:55.013Z,13.09
2018-09-16T01:49:30.471Z,13.04
2018-09-16T01:50:05.769Z,13.04
2018-09-16T01:50:41.279Z,13.04
2018-09-16T01:51:17.037Z,13.06
2018-09-16T01:51:52.026Z,13.00
2018-09-16T01:52:27.384Z,13.02
2018-09-16T01:53:03.037Z,13.03
2018-09-16T01:53:38.365Z,13.02
2018-09-16T01:54:13.674Z,12.99
2018-09-16T01:54:49.023Z,13.02
2018-09-16T01:55:24.352Z,12.92
2018-09-16T01:55:59.825Z,12.97
2018-09-16T01:56:35.356Z,12.92
2018-09-16T01:57:10.850Z,12.95
2018-09-16T01:57:46.301Z,12.93
2018-09-16T01:58:21.527Z,12.89
2018-09-16T01:58:56.931Z,12.88
2018-09-16T01:59:32.551Z,12.74
2018-09-16T02:00:08.055Z,12.82
2018-09-16T02:00:43.472Z,12.88
2018-09-16T02:01:19.233Z,12.82
2018-09-16T02:01:54.619Z,12.81
2018-09-16T02:02:30.148Z,12.82
2018-09-16T02:03:05.501Z,12.69
2018-09-16T02:03:40.797Z,12.82
2018-09-16T02:04:16.255Z,12.77
2018-09-16T02:04:51.670Z,12.79
2018-09-16T02:05:27.102Z,12.75
2018-09-16T02:06:02.432Z,12.70
2018-09-16T02:06:37.593Z,12.74
2018-09-16T02:07:13.172Z,12.70
2018-09-16T02:07:48.915Z,12.70
2018-09-16T02:08:24.248Z,12.69
2018-09-16T02:08:59.616Z,12.71
2018-09-16T02:09:35.282Z,12.64
2018-09-16T02:10:10.416Z,12.74
2018-09-16T02:10:45.528Z,12.67
2018-09-16T02:11:21.099Z,12.64
2018-09-16T02:11:56.341Z,12.71
2018-09-16T02:12:31.652Z,12.59
2018-09-16T02:13:07.250Z,12.59
2018-09-16T02:13:43.033Z,12.59
2018-09-16T02:14:18.467Z,12.62
2018-09-16T02:14:53.921Z,12.59
2018-09-16T02:15:29.244Z,12.62
2018-09-16T02:16:04.901Z,12.70
2018-09-16T02:16:40.004Z,12.59
2018-09-16T02:17:15.658Z,12.62
2018-09-16T02:17:50.852Z,12.59
2018-09-16T02:18:26.077Z,12.64
2018-09-16T02:19:01.472Z,12.56
2018-09-16T02:19:37.218Z,12.62
2018-09-16T02:20:12.548Z,12.60
2018-09-16T02:20:47.780Z,12.57
2018-09-16T02:21:23.036Z,12.59
2018-09-16T02:21:58.481Z,12.54
2018-09-16T02:22:33.904Z,12.59
2018-09-16T02:23:09.267Z,12.56
2018-09-16T02:23:44.262Z,12.56
2018-09-16T02:24:19.714Z,12.51
2018-09-16T02:24:55.321Z,12.51
2018-09-16T02:25:30.401Z,12.59
2018-09-16T02:26:05.827Z,12.49
2018-09-16T02:26:41.334Z,12.57
2018-09-16T02:27:16.553Z,12.52
2018-09-16T02:27:52.122Z,12.48
2018-09-16T02:28:27.413Z,12.49
2018-09-16T02:29:02.751Z,12.45
2018-09-16T02:29:38.436Z,12.45
2018-09-16T02:30:13.661Z,12.46
2018-09-16T02:30:49.020Z,12.48
2018-09-16T02:31:24.265Z,12.45
2018-09-16T02:31:59.778Z,12.51
2018-09-16T02:32:35.040Z,12.45
2018-09-16T02:33:10.430Z,12.44
2018-09-16T02:33:45.696Z,12.48
2018-09-16T02:34:20.954Z,12.45
2018-09-16T02:34:56.168Z,12.42
2018-09-16T02:35:31.807Z,12.37
2018-09-16T02:36:07.260Z,12.46
2018-09-16T02:36:42.864Z,12.48
2018-09-16T02:37:18.261Z,12.48
2018-09-16T02:37:53.863Z,12.48
2018-09-16T02:38:29.147Z,12.51
2018-09-16T02:39:04.361Z,12.51
2018-09-16T02:39:39.510Z,12.49
2018-09-16T02:40:14.906Z,12.44
2018-09-16T02:40:50.391Z,12.42
2018-09-16T02:41:25.890Z,12.44
2018-09-16T02:42:01.455Z,12.34
2018-09-16T02:42:36.779Z,12.46
2018-09-16T02:43:12.362Z,12.45
2018-09-16T02:43:47.711Z,12.42
2018-09-16T02:44:23.228Z,12.49
2018-09-16T02:44:58.371Z,12.41
2018-09-16T02:45:33.738Z,12.39
2018-09-16T02:46:09.462Z,12.37
2018-09-16T02:46:44.785Z,12.39
2018-09-16T02:47:20.182Z,12.42
2018-09-16T02:47:55.465Z,12.33
2018-09-16T02:48:31.378Z,12.38
2018-09-16T02:49:06.806Z,12.39
2018-09-16T02:49:42.017Z,12.37
2018-09-16T02:50:17.388Z,12.39
2018-09-16T02:50:52.803Z,12.41
2018-09-16T02:51:28.050Z,12.48
2018-09-16T02:52:03.567Z,12.42
2018-09-16T02:52:38.781Z,12.44
2018-09-16T02:53:14.126Z,12.41
2018-09-16T02:53:49.597Z,12.42
2018-09-16T02:54:24.838Z,12.42
2018-09-16T02:54:59.769Z,12.41
2018-09-16T02:55:35.084Z,12.38
2018-09-16T02:56:10.305Z,12.37
2018-09-16T02:56:45.819Z,12.37
2018-09-16T02:57:21.153Z,12.38
2018-09-16T02:57:56.579Z,12.45
2018-09-16T02:58:31.918Z,12.37
2018-09-16T02:59:07.342Z,12.31
2018-09-16T02:59:42.805Z,12.31
2018-09-16T03:00:18.101Z,12.33
2018-09-16T03:00:53.471Z,12.31
2018-09-16T03:01:28.794Z,12.26
2018-09-16T03:02:03.922Z,12.33
2018-09-16T03:02:39.370Z,12.29
2018-09-16T03:03:14.747Z,12.38
2018-09-16T03:03:49.984Z,12.37
2018-09-16T03:04:25.404Z,12.23
2018-09-16T03:05:00.711Z,12.24
2018-09-16T03:05:36.187Z,12.21
2018-09-16T03:06:11.288Z,12.26
2018-09-16T03:06:46.632Z,12.34
2018-09-16T03:07:22.435Z,12.24
2018-09-16T03:07:57.625Z,12.26
2018-09-16T03:08:33.133Z,12.30
2018-09-16T03:09:08.560Z,12.23
2018-09-16T03:09:44.021Z,12.19
2018-09-16T03:10:19.745Z,12.26
2018-09-16T03:10:55.287Z,12.21
2018-09-16T03:11:30.670Z,12.24
2018-09-16T03:12:06.001Z,12.26
2018-09-16T03:12:41.403Z,12.24
2018-09-16T03:13:16.836Z,12.29
2018-09-16T03:13:52.066Z,12.26
2018-09-16T03:14:27.383Z,12.26
2018-09-16T03:15:02.924Z,12.24
2018-09-16T03:15:38.316Z,12.26
2018-09-16T03:16:13.632Z,12.23
2018-09-16T03:16:49.033Z,12.21
2018-09-16T03:17:24.897Z,12.26
2018-09-16T03:17:59.923Z,12.21
2018-09-16T03:18:35.191Z,12.15
2018-09-16T03:19:10.661Z,12.20
2018-09-16T03:19:46.033Z,12.26
2018-09-16T03:20:21.662Z,12.20
2018-09-16T03:20:56.933Z,12.24
2018-09-16T03:21:32.560Z,12.16
2018-09-16T03:22:07.801Z,12.23
2018-09-16T03:22:43.221Z,12.26
2018-09-16T03:23:18.650Z,12.19
2018-09-16T03:23:53.752Z,12.06
2018-09-16T03:24:29.514Z,12.23
2018-09-16T03:25:05.091Z,12.24
2018-09-16T03:25:40.612Z,12.15
2018-09-16T03:26:15.889Z,12.21
2018-09-16T03:26:51.529Z,12.12
2018-09-16T03:27:27.017Z,12.13
2018-09-16T03:28:02.333Z,12.09
2018-09-16T03:28:37.960Z,12.11
2018-09-16T03:29:13.180Z,12.15
2018-09-16T03:29:48.451Z,12.12
2018-09-16T03:30:23.876Z,12.20
2018-09-16T03:30:59.093Z,12.16
2018-09-16T03:31:34.561Z,12.16
2018-09-16T03:32:10.069Z,12.12
2018-09-16T03:32:45.295Z,12.20
2018-09-16T03:33:20.636Z,12.20
2018-09-16T03:33:55.983Z,12.11
2018-09-16T03:34:31.605Z,12.12
2018-09-16T03:35:06.799Z,12.08
2018-09-16T03:35:42.203Z,12.06
2018-09-16T03:36:17.441Z,12.11
2018-09-16T03:36:52.453Z,12.16
2018-09-16T03:37:27.778Z,12.12
2018-09-16T03:38:03.283Z,12.11
2018-09-16T03:38:38.693Z,12.08
2018-09-16T03:39:14.102Z,12.15
2018-09-16T03:39:49.457Z,12.06
2018-09-16T03:40:24.994Z,12.01
2018-09-16T03:41:00.417Z,12.13
2018-09-16T03:41:35.756Z,12.08
2018-09-16T03:42:11.008Z,12.11
2018-09-16T03:42:46.416Z,12.13
2018-09-16T03:43:21.717Z,12.09
2018-09-16T03:43:56.830Z,12.06
2018-09-16T03:44:32.514Z,12.08
2018-09-16T03:45:07.928Z,12.08
2018-09-16T03:45:43.275Z,12.05
2018-09-16T03:46:18.579Z,12.02
2018-09-16T03:46:54.141Z,12.04
2018-09-16T03:47:29.591Z,12.13
2018-09-16T03:48:05.108Z,12.02
2018-09-16T03:48:40.115Z,12.05
2018-09-16T03:49:15.566Z,12.08
2018-09-16T03:49:50.664Z,12.02
2018-09-16T03:50:25.903Z,12.06
2018-09-16T03:51:01.084Z,12.01
2018-09-16T03:51:36.629Z,12.08
2018-09-16T03:52:12.140Z,12.06
2018-09-16T03:52:47.288Z,12.04
2018-09-16T03:53:22.912Z,12.12
2018-09-16T03:53:58.236Z,12.06
2018-09-16T03:54:33.458Z,12.06
2018-09-16T03:55:08.607Z,11.99
2018-09-16T03:55:43.740Z,11.99
2018-09-16T03:56:19.175Z,11.99
2018-09-16T03:56:54.590Z,11.93
2018-09-16T03:57:29.924Z,11.93
2018-09-16T03:58:05.323Z,11.97
2018-09-16T03:58:40.656Z,11.97
2018-09-16T03:59:15.993Z,11.99
2018-09-16T03:59:51.327Z,11.97
2018-09-16T04:00:26.662Z,11.89
2018-09-16T04:01:01.921Z,11.89
2018-09-16T04:01:37.253Z,11.94
2018-09-16T04:02:12.616Z,11.89
2018-09-16T04:02:47.807Z,11.97
2018-09-16T04:03:23.356Z,11.82
2018-09-16T04:03:58.483Z,11.85
2018-09-16T04:04:33.832Z,11.80
2018-09-16T04:05:08.867Z,11.90
2018-09-16T04:05:44.148Z,11.85
2018-09-16T04:06:19.552Z,11.86
2018-09-16T04:06:54.891Z,11.86
2018-09-16T04:07:30.137Z,11.80
2018-09-16T04:08:05.745Z,11.86
2018-09-16T04:08:41.001Z,11.82
2018-09-16T04:09:16.715Z,11.87
2018-09-16T04:09:52.121Z,11.82
2018-09-16T04:10:27.490Z,11.78
2018-09-16T04:11:02.657Z,11.85
2018-09-16T04:11:38.149Z,11.77
2018-09-16T04:12:13.565Z,11.86
2018-09-16T04:12:49.247Z,11.80
2018-09-16T04:13:24.672Z,11.78
2018-09-16T04:14:00.282Z,11.85
2018-09-16T04:14:35.680Z,11.72
2018-09-16T04:15:11.157Z,11.77
2018-09-16T04:15:46.475Z,11.75
2018-09-16T04:16:21.829Z,11.82
2018-09-16T04:16:57.291Z,11.74
2018-09-16T04:17:32.716Z,11.75
2018-09-16T04:18:07.919Z,11.72
2018-09-16T04:18:43.344Z,11.77
2018-09-16T04:19:18.458Z,11.77
2018-09-16T04:19:53.719Z,11.72
2018-09-16T04:20:29.234Z,11.72
2018-09-16T04:21:04.667Z,11.70
2018-09-16T04:21:40.100Z,11.68
2018-09-16T04:22:15.619Z,11.72
2018-09-16T04:22:50.648Z,11.59
2018-09-16T04:23:25.966Z,11.68
2018-09-16T04:24:01.079Z,11.65
2018-09-16T04:24:36.443Z,11.70
2018-09-16T04:25:11.696Z,11.62
2018-09-16T04:25:47.224Z,11.62
2018-09-16T04:26:22.375Z,11.67
2018-09-16T04:26:57.772Z,11.70
2018-09-16T04:27:33.340Z,11.72
2018-09-16T04:28:08.559Z,11.72
2018-09-16T04:28:43.904Z,11.72
2018-09-16T04:29:19.333Z,11.62
2018-09-16T04:29:54.760Z,11.62
2018-09-16T04:30:30.404Z,11.64
2018-09-16T04:31:05.791Z,11.68
2018-09-16T04:31:41.045Z,11.65
2018-09-16T04:32:16.508Z,11.61
2018-09-16T04:32:51.946Z,11.62
2018-09-16T04:33:27.123Z,11.59
2018-09-16T04:34:02.167Z,11.68
2018-09-16T04:34:37.715Z,11.65
2018-09-16T04:35:12.870Z,11.53
2018-09-16T04:35:48.208Z,11.57
2018-09-16T04:36:23.552Z,11.59
2018-09-16T04:36:58.721Z,11.57
2018-09-16T04:37:34.125Z,11.56
2018-09-16T04:38:09.457Z,11.50
2018-09-16T04:38:44.858Z,11.61
2018-09-16T04:39:20.345Z,11.53
2018-09-16T04:39:55.432Z,11.54
2018-09-16T04:40:31.096Z,11.50
2018-09-16T04:41:06.348Z,11.44
2018-09-16T04:41:42.018Z,11.44
2018-09-16T04:42:17.320Z,11.53
2018-09-16T04:42:52.660Z,11.52
2018-09-16T04:43:27.979Z,11.43
2018-09-16T04:44:03.208Z,11.44
2018-09-16T04:44:38.658Z,11.38
2018-09-16T04:45:13.898Z,11.50
2018-09-16T04:45:49.700Z,11.46
2018-09-16T04:46:24.958Z,11.50
2018-09-16T04:47:00.317Z,11.53
2018-09-16T04:47:35.979Z,11.49
2018-09-16T04:48:11.377Z,11.54
2018-09-16T04:48:46.806Z,11.53
2018-09-16T04:49:22.443Z,11.54
2018-09-16T04:49:57.883Z,11.39
2018-09-16T04:50:32.956Z,11.49
2018-09-16T04:51:08.283Z,11.52
2018-09-16T04:51:43.701Z,11.46
2018-09-16T04:52:19.123Z,11.49
2018-09-16T04:52:54.672Z,11.52
2018-09-16T04:53:30.240Z,11.50
2018-09-16T04:54:05.733Z,11.44
2018-09-16T04:54:41.041Z,11.49
2018-09-16T04:55:16.353Z,11.44
2018-09-16T04:55:51.487Z,11.46
2018-09-16T04:56:26.874Z,11.50
2018-09-16T04:57:02.100Z,11.50
2018-09-16T04:57:37.588Z,11.53
2018-09-16T04:58:13.099Z,11.49
2018-09-16T04:58:48.618Z,11.47
2018-09-16T04:59:24.014Z,11.49
2018-09-16T04:59:59.325Z,11.50
2018-09-16T05:00:34.570Z,11.43
2018-09-16T05:01:09.951Z,11.41
2018-09-16T05:01:45.319Z,11.38
2018-09-16T05:02:20.754Z,11.49
2018-09-16T05:02:55.884Z,11.49
2018-09-16T05:03:31.254Z,11.47
2018-09-16T05:04:06.529Z,11.39
2018-09-16T05:04:42.046Z,11.47
2018-09-16T05:05:17.713Z,11.43
2018-09-16T05:05:53.054Z,11.43
2018-09-16T05:06:28.412Z,11.52
2018-09-16T05:07:03.707Z,11.44
2018-09-16T05:07:39.152Z,11.43
2018-09-16T05:08:14.562Z,11.49
2018-09-16T05:08:50.108Z,11.49
2018-09-16T05:09:25.451Z,11.41
2018-09-16T05:10:00.791Z,11.44
2018-09-16T05:10:36.205Z,11.39
2018-09-16T05:11:11.491Z,11.43
2018-09-16T05:11:46.703Z,11.43
2018-09-16T05:12:22.041Z,11.46
2018-09-16T05:12:57.181Z,11.41
2018-09-16T05:13:32.309Z,11.44
2018-09-16T05:14:07.403Z,11.43
2018-09-16T05:14:42.751Z,11.44
2018-09-16T05:15:18.275Z,11.38
2018-09-16T05:15:53.530Z,11.46
2018-09-16T05:16:28.880Z,11.44
2018-09-16T05:17:04.412Z,11.52
2018-09-16T05:17:39.753Z,11.41
2018-09-16T05:18:15.259Z,11.44
2018-09-16T05:18:50.677Z,11.34
2018-09-16T05:19:25.953Z,11.39
2018-09-16T05:20:01.239Z,11.32
2018-09-16T05:20:36.721Z,11.38
2018-09-16T05:21:12.127Z,11.36
2018-09-16T05:21:47.571Z,11.46
2018-09-16T05:22:23.106Z,11.43
2018-09-16T05:22:58.883Z,11.38
2018-09-16T05:23:34.789Z,11.49
2018-09-16T05:24:10.290Z,11.36
2018-09-16T05:24:45.480Z,11.54
2018-09-16T05:25:21.061Z,11.46
2018-09-16T05:25:56.578Z,11.43
2018-09-16T05:26:32.323Z,11.38
2018-09-16T05:27:07.751Z,11.44
2018-09-16T05:27:44.101Z,11.36
2018-09-16T05:28:20.181Z,11.39
2018-09-16T05:28:56.053Z,11.47
2018-09-16T05:29:32.401Z,11.39
2018-09-16T05:30:08.368Z,11.43
2018-09-16T05:30:45.402Z,11.49
2018-09-16T05:31:21.495Z,11.47
2018-09-16T05:31:57.618Z,11.50
2018-09-16T05:32:33.175Z,11.46
2018-09-16T05:33:09.233Z,11.47
2018-09-16T05:33:44.598Z,11.50
2018-09-16T05:34:20.450Z,11.49
2018-09-16T05:34:56.427Z,11.47
2018-09-16T05:35:31.902Z,11.50
2018-09-16T05:36:07.469Z,11.56
2018-09-16T05:36:43.058Z,11.52
2018-09-16T05:37:19.172Z,11.52
2018-09-16T05:37:54.827Z,11.52
2018-09-16T05:38:30.552Z,11.53
2018-09-16T05:39:06.203Z,11.61
2018-09-16T05:39:41.451Z,11.62
2018-09-16T05:40:17.392Z,11.54
2018-09-16T05:40:53.027Z,11.65
2018-09-16T05:41:28.413Z,11.67
2018-09-16T05:42:03.932Z,11.65
2018-09-16T05:42:39.647Z,11.62
2018-09-16T05:43:15.372Z,11.59
2018-09-16T05:43:50.987Z,11.62
2018-09-16T05:44:26.595Z,11.68
2018-09-16T05:45:02.110Z,11.65
2018-09-16T05:45:37.896Z,11.56
2018-09-16T05:46:13.495Z,11.67
2018-09-16T05:46:49.133Z,11.61
2018-09-16T05:47:24.606Z,11.61
2018-09-16T05:48:01.615Z,11.61
2018-09-16T05:48:37.560Z,11.65
2018-09-16T05:49:13.275Z,11.68
2018-09-16T05:49:48.833Z,11.65
2018-09-16T05:50:24.041Z,11.71
2018-09-16T05:50:59.609Z,11.71
2018-09-16T05:51:34.837Z,11.77
2018-09-16T05:52:10.803Z,11.78
2018-09-16T05:52:46.332Z,11.80
2018-09-16T05:53:21.733Z,11.78
2018-09-16T05:53:57.073Z,11.80
2018-09-16T05:54:32.399Z,11.82
2018-09-16T05:55:07.639Z,11.80
2018-09-16T05:55:43.079Z,11.85
2018-09-16T05:56:18.341Z,11.82
2018-09-16T05:56:53.760Z,11.85
2018-09-16T05:57:28.999Z,11.85
2018-09-16T05:58:04.427Z,11.96
2018-09-16T05:58:39.666Z,11.94
2018-09-16T05:59:15.031Z,12.01
2018-09-16T05:59:50.463Z,12.06
2018-09-16T06:00:25.854Z,12.05
2018-09-16T06:01:00.883Z,12.08
2018-09-16T06:01:36.291Z,12.12
2018-09-16T06:02:11.533Z,12.11
2018-09-16T06:02:47.036Z,12.20
2018-09-16T06:03:22.659Z,12.13
2018-09-16T06:03:58.291Z,12.15
2018-09-16T06:04:33.691Z,12.11
2018-09-16T06:05:09.297Z,12.27
2018-09-16T06:05:44.593Z,12.24
2018-09-16T06:06:19.707Z,12.30
2018-09-16T06:06:55.063Z,12.31
2018-09-16T06:07:30.494Z,12.34
2018-09-16T06:08:05.710Z,12.38
2018-09-16T06:08:41.194Z,12.39
2018-09-16T06:09:16.533Z,12.42
2018-09-16T06:09:51.871Z,12.30
2018-09-16T06:10:26.980Z,12.39
2018-09-16T06:11:02.242Z,12.45
2018-09-16T06:11:37.868Z,12.44
2018-09-16T06:12:13.383Z,12.39
2018-09-16T06:12:48.910Z,12.39
2018-09-16T06:13:24.474Z,12.34
2018-09-16T06:14:00.005Z,12.46
2018-09-16T06:14:35.269Z,12.51
2018-09-16T06:15:10.670Z,12.56
2018-09-16T06:15:46.321Z,12.42
2018-09-16T06:16:21.588Z,12.48
2018-09-16T06:16:56.935Z,12.49
2018-09-16T06:17:32.135Z,12.46
2018-09-16T06:18:07.575Z,12.59
2018-09-16T06:18:43.002Z,12.54
2018-09-16T06:19:18.674Z,12.57
2018-09-16T06:19:54.512Z,12.60
2018-09-16T06:20:29.856Z,12.60
2018-09-16T06:21:05.228Z,12.64
2018-09-16T06:21:40.966Z,12.63
2018-09-16T06:22:16.397Z,12.70
2018-09-16T06:22:51.790Z,12.62
2018-09-16T06:23:27.190Z,12.62
2018-09-16T06:24:02.501Z,12.69
2018-09-16T06:24:37.960Z,12.75
2018-09-16T06:25:13.219Z,12.66
2018-09-16T06:25:48.924Z,12.69
2018-09-16T06:26:24.246Z,12.71
2018-09-16T06:26:59.581Z,12.74
2018-09-16T06:27:35.018Z,12.77
2018-09-16T06:28:10.633Z,12.75
2018-09-16T06:28:46.157Z,12.75
2018-09-16T06:29:21.399Z,12.79
2018-09-16T06:29:56.819Z,12.82
2018-09-16T06:30:32.517Z,12.81
2018-09-16T06:31:08.352Z,12.84
2018-09-16T06:31:43.900Z,12.96
2018-09-16T06:32:19.500Z,12.97
2018-09-16T06:32:54.630Z,12.96
2018-09-16T06:33:30.292Z,12.95
2018-09-16T06:34:05.767Z,12.95
2018-09-16T06:34:41.070Z,13.07
2018-09-16T06:35:16.221Z,13.18
2018-09-16T06:35:51.481Z,13.20
2018-09-16T06:36:26.690Z,13.29
2018-09-16T06:37:02.018Z,13.36
2018-09-16T06:37:37.442Z,13.37
2018-09-16T06:38:12.761Z,13.44
2018-09-16T06:38:48.053Z,13.62
2018-09-16T06:39:23.724Z,13.61
2018-09-16T06:39:59.115Z,13.55
2018-09-16T06:40:34.407Z,13.65
2018-09-16T06:41:09.617Z,13.67
2018-09-16T06:41:44.987Z,13.67
2018-09-16T06:42:20.598Z,13.69
2018-09-16T06:42:56.231Z,13.70
2018-09-16T06:43:31.677Z,13.83
2018-09-16T06:44:06.926Z,13.87
2018-09-16T06:44:42.566Z,13.96
2018-09-16T06:45:18.087Z,14.13
2018-09-16T06:45:53.497Z,14.17
2018-09-16T06:46:29.040Z,14.29
2018-09-16T06:47:04.367Z,14.38
2018-09-16T06:47:39.904Z,14.29
2018-09-16T06:48:15.341Z,14.54
2018-09-16T06:48:50.881Z,14.53
2018-09-16T06:49:26.254Z,14.65
2018-09-16T06:50:01.796Z,14.81
2018-09-16T06:50:37.171Z,14.87
2018-09-16T06:51:12.744Z,14.99
2018-09-16T06:51:48.239Z,15.17
2018-09-16T06:52:23.581Z,15.38
2018-09-16T06:52:58.850Z,15.43
2018-09-16T06:53:34.208Z,15.59
2018-09-16T06:54:09.534Z,15.57
2018-09-16T06:54:44.929Z,15.75
2018-09-16T06:55:20.522Z,15.81
2018-09-16T06:55:55.785Z,15.68
2018-09-16T06:56:30.998Z,15.79
2018-09-16T06:57:06.249Z,15.89
2018-09-16T06:57:41.656Z,15.93
2018-09-16T06:58:17.194Z,15.89
2018-09-16T06:58:52.557Z,16.01
2018-09-16T06:59:28.131Z,16.20
2018-09-16T07:00:03.332Z,16.01
2018-09-16T07:00:38.704Z,16.07
2018-09-16T07:01:14.127Z,16.09
2018-09-16T07:01:49.745Z,16.15
2018-09-16T07:02:25.051Z,16.20
2018-09-16T07:03:00.409Z,16.14
2018-09-16T07:03:36.171Z,16.31
2018-09-16T07:04:11.415Z,16.31
2018-09-16T07:04:46.824Z,16.58
2018-09-16T07:05:22.166Z,16.75
2018-09-16T07:05:57.500Z,16.55
2018-09-16T07:06:32.927Z,16.71
2018-09-16T07:07:08.233Z,16.78
2018-09-16T07:07:43.683Z,16.81
2018-09-16T07:08:19.367Z,16.77
2018-09-16T07:08:54.810Z,16.74
2018-09-16T07:09:30.193Z,16.96
2018-09-16T07:10:07.871Z,17.07
2018-09-16T07:10:50.354Z,17.04
2018-09-16T07:11:27.314Z,16.77
2018-09-16T07:12:01.557Z,16.98
2018-09-16T07:12:37.128Z,17.07
2018-09-16T07:13:12.464Z,16.98
2018-09-16T07:13:47.780Z,16.86
2018-09-16T07:14:23.018Z,16.81
2018-09-16T07:14:58.708Z,16.77
2018-09-16T07:15:34.410Z,16.89
2018-09-16T07:16:10.431Z,16.92
2018-09-16T07:16:48.314Z,17.07
2018-09-16T07:17:23.312Z,17.11
2018-09-16T07:17:58.848Z,17.11
2018-09-16T07:18:34.213Z,17.11
2018-09-16T07:19:09.562Z,16.90
2018-09-16T07:19:45.180Z,17.20
2018-09-16T07:20:20.826Z,17.15
2018-09-16T07:20:56.421Z,17.15
2018-09-16T07:21:31.836Z,17.18
2018-09-16T07:22:07.270Z,17.26
2018-09-16T07:22:42.850Z,17.33
2018-09-16T07:23:18.211Z,17.50
2018-09-16T07:23:53.797Z,17.51
2018-09-16T07:24:29.245Z,17.57
2018-09-16T07:25:04.590Z,17.70
2018-09-16T07:25:40.298Z,17.84
2018-09-16T07:26:15.943Z,17.97
2018-09-16T07:26:51.569Z,17.84
2018-09-16T07:27:27.019Z,17.81
2018-09-16T07:28:02.628Z,17.89
2018-09-16T07:28:37.909Z,17.87
2018-09-16T07:29:13.378Z,17.99
2018-09-16T07:29:48.751Z,18.25
2018-09-16T07:30:24.070Z,18.34
2018-09-16T07:30:59.508Z,18.67
2018-09-16T07:31:34.941Z,18.52
2018-09-16T07:32:10.257Z,18.52
2018-09-16T07:32:46.015Z,18.61
2018-09-16T07:33:21.561Z,18.79
2018-09-16T07:33:57.173Z,18.84
2018-09-16T07:34:34.323Z,18.97
2018-09-16T07:35:08.333Z,19.10
2018-09-16T07:35:44.866Z,19.24
2018-09-16T07:36:20.485Z,19.39